メインページ
METAR-TAF:

METAR-TAF

空港 :

キング・ファハド国際空港

ダンマーム, サウジアラビア

緯度: 26-28N, 経度: 049-47E, 海抜: 22m

現時点の気象観測

当レポートは1時間5分前の05:00(UTC)に作成
の風 13kt
気温 24°C
湿度 54%
気圧 1015 hPa
視程10km以上
1,500メートル以下は雲なし、積乱雲なし

METAR: OEDF 040500Z 36013KT CAVOK 24/14 Q1015 NOSIG

時間: 09:05 (06:05 UTC)

予報

当レポートは8時間5分前の22:00(UTC)に作成
予報は04日の 00時(UTC)から 05日の 06時(UTC)まで有効
北/北西の風 8kt
視程: 8000m
04日の 08時(UTC)から 04日の 10時(UTC)まで徐々に
北東の風 13kt
04日の 16時(UTC)から 04日の 18時(UTC)まで徐々に
北/北西の風 8kt

TAF: OEDF 032200Z 0400/0506 34008KT 8000 NSC BECMG 0408/0410 04013KT BECMG 0416/0418 34008KT

4,000以上の空港の気象観測と天気予報(METAR報とTAF報)

利用可能な観測所は地図上に黄色い丸と赤い丸で示す。

丸の上にカーソルを重ねると観測所名を参照できる。

次にクリックすると気象観測と天気予報を参照できる。

マップの切り替え:黒色「×」印の緑ボタンをクリックして拡大、「-」印の緑ボタンをクリックして縮小、緑色の三角印をクリックして隣りの地図に切り替え


METAR-TAF: